Thatcher, Arizona
Current Conditions -  °F | °C
As of 8:51 PM on Sunday 25 Jan 2015 (Local Time) from KSAD Reporting Station
Clear Clear  
Wind Chill: 45°   Ceiling: Unl
Heat Index: 49°   Visibility: 10mi
Dew Point: 22°   Wind: 10mph
Humidity: 35%   Direction: 100°E
Pressure: 30.21"   Gusts: NA
Location:  32.85°N, 109.76°W
Report Text: KSAD 260351Z AUTO 10009KT 10SM CLR 09/M06 A3021 RMK AO2 SLP220 T00941056
Loading
Personal Weather Stations






























Interactive Weather Map New forecast layout! Learn more

10-Day Weather Forecast

Advertisements
Track Severe Weather on mobile